Time;durP1;ratioP1;P1;durP2;ratioP2;P2;SDS_P1;SDS_P2;PMS_P1;PMS_P2;Temp;Humidity;BMP_temperature;BMP_pressure;BME280_temperature;BME280_humidity;BME280_pressure;Samples;Min_cycle;Max_cycle;Signal;HPM_P1;HPM_P2
2022/04/25 00:01:34;;;;;;;9.35;5.05;;;;;;;8.01;73.16;100775.69;5066187;28;20064;-78
2022/04/25 00:04:00;;;;;;;10.65;4.88;;;;;;;8.04;72.30;100779.09;5048562;28;20032;-70
2022/04/25 00:06:25;;;;;;;8.18;5.20;;;;;;;7.97;73.29;100780.44;5070969;28;20033;-75
2022/04/25 00:08:51;;;;;;;11.60;5.90;;;;;;;7.96;73.71;100784.13;5066756;28;20051;-76
2022/04/25 00:11:16;;;;;;;14.38;5.80;;;;;;;7.87;74.57;100782.84;5051556;28;20051;-68
2022/04/25 00:13:42;;;;;;;9.90;5.22;;;;;;;7.84;73.90;100783.06;5064573;28;20098;-69
2022/04/25 00:16:07;;;;;;;9.98;4.90;;;;;;;7.85;73.69;100783.94;5065386;28;20480;-70
2022/04/25 00:18:33;;;;;;;10.00;5.13;;;;;;;7.84;73.93;100787.63;5058041;28;20179;-69
2022/04/25 00:21:00;;;;;;;12.30;5.78;;;;;;;7.77;73.89;100781.69;5069741;28;20033;-78
2022/04/25 00:23:26;;;;;;;8.75;5.68;;;;;;;7.77;74.18;100788.94;5069921;28;20032;-70
2022/04/25 00:25:51;;;;;;;10.82;5.65;;;;;;;7.73;73.72;100787.38;5068842;28;20028;-77
2022/04/25 00:28:16;;;;;;;10.15;5.63;;;;;;;7.77;73.77;100791.66;5065451;28;20064;-69
2022/04/25 00:30:42;;;;;;;7.80;5.63;;;;;;;7.70;74.84;100782.19;5067751;28;20043;-69
2022/04/25 00:33:07;;;;;;;11.00;5.57;;;;;;;7.68;74.37;100795.78;5071735;28;20495;-69
2022/04/25 00:35:33;;;;;;;9.95;5.50;;;;;;;7.66;74.04;100786.91;5061577;28;20410;-69
2022/04/25 00:37:58;;;;;;;8.40;5.10;;;;;;;7.65;74.72;100782.47;5084220;28;20094;-69
2022/04/25 00:40:24;;;;;;;9.15;5.45;;;;;;;7.62;74.37;100791.63;5070147;28;20060;-69
2022/04/25 00:42:50;;;;;;;8.00;5.13;;;;;;;7.62;74.01;100783.50;5072459;28;20020;-77
2022/04/25 00:45:16;;;;;;;9.00;5.40;;;;;;;7.62;73.70;100779.94;5067608;28;20102;-70
2022/04/25 00:47:43;;;;;;;9.70;5.20;;;;;;;7.63;73.49;100787.09;5050835;28;20123;-70
2022/04/25 00:50:10;;;;;;;8.43;5.57;;;;;;;7.60;73.18;100785.44;5053971;28;20112;-77
2022/04/25 00:52:36;;;;;;;8.20;5.82;;;;;;;7.59;73.89;100785.53;5069625;28;20499;-69
2022/04/25 00:55:04;;;;;;;9.90;5.38;;;;;;;7.57;74.15;100784.75;5068469;28;20028;-71
2022/04/25 00:57:30;;;;;;;11.20;5.38;;;;;;;7.58;73.38;100781.06;5065313;28;20420;-77
2022/04/25 00:59:57;;;;;;;9.90;5.07;;;;;;;7.56;73.23;100791.16;5055733;28;20112;-78
2022/04/25 01:02:27;;;;;;;12.15;6.35;;;;;;;7.50;73.61;100777.97;5067141;28;20039;-78
2022/04/25 01:04:54;;;;;;;11.98;5.57;;;;;;;7.44;74.48;100775.63;5066764;28;20047;-77
2022/04/25 01:07:20;;;;;;;13.80;5.80;;;;;;;7.44;74.81;100779.22;5069575;28;20044;-76
2022/04/25 01:09:45;;;;;;;11.90;6.55;;;;;;;7.41;74.50;100782.09;5064963;28;20033;-78
2022/04/25 01:12:11;;;;;;;11.02;6.20;;;;;;;7.37;76.23;100785.97;5063665;28;20070;-69
2022/04/25 01:14:36;;;;;;;10.02;6.53;;;;;;;7.25;75.24;100774.03;5067269;28;20450;-78
2022/04/25 01:17:02;;;;;;;12.40;5.53;;;;;;;7.25;74.70;100782.16;5064681;28;20622;-69
2022/04/25 01:19:28;;;;;;;11.50;6.30;;;;;;;7.26;74.67;100775.78;5060008;28;20035;-77
2022/04/25 01:21:58;;;;;;;9.23;5.88;;;;;;;7.26;75.41;100783.00;5073694;28;20040;-78
2022/04/25 01:27:18;;;;;;;11.65;6.20;;;;;;;7.12;75.53;100775.72;5071432;28;20089;-78
2022/04/25 01:29:48;;;;;;;12.65;7.53;;;;;;;7.10;76.42;100780.38;5066417;28;20036;-77
2022/04/25 01:32:14;;;;;;;10.85;6.45;;;;;;;7.01;77.37;100776.38;5071236;28;20475;-78
2022/04/25 01:34:39;;;;;;;12.02;6.60;;;;;;;6.93;77.76;100780.47;5071132;28;20071;-70
2022/04/25 01:37:10;;;;;;;14.35;7.22;;;;;;;6.90;78.26;100777.00;5062424;28;20040;-69
2022/04/25 01:39:36;;;;;;;11.63;6.20;;;;;;;6.83;77.13;100774.72;5073448;28;20039;-69
2022/04/25 01:42:04;;;;;;;15.27;7.45;;;;;;;6.81;79.25;100779.38;5073363;28;20082;-69
2022/04/25 01:44:29;;;;;;;11.80;6.68;;;;;;;6.75;78.79;100777.00;5081829;28;20385;-77
2022/04/25 01:46:55;;;;;;;14.70;6.93;;;;;;;6.71;78.63;100787.13;5071017;28;20036;-78
2022/04/25 01:49:20;;;;;;;16.73;6.95;;;;;;;6.71;78.79;100786.25;5061191;28;20037;-76
2022/04/25 01:51:45;;;;;;;10.07;6.47;;;;;;;6.69;77.75;100785.47;5071973;28;20036;-70
2022/04/25 01:54:11;;;;;;;11.15;7.28;;;;;;;6.69;78.78;100783.63;5066891;28;20111;-78
2022/04/25 01:56:36;;;;;;;15.40;7.22;;;;;;;6.69;78.19;100785.47;5072301;28;20028;-77
2022/04/25 01:59:02;;;;;;;10.40;7.25;;;;;;;6.66;78.94;100783.81;5069929;28;20056;-78
2022/04/25 02:01:27;;;;;;;15.13;7.32;;;;;;;6.63;78.29;100784.88;5057767;28;20029;-78
2022/04/25 02:03:53;;;;;;;14.45;7.03;;;;;;;6.62;78.98;100788.53;5066920;28;20109;-70
2022/04/25 02:06:18;;;;;;;15.18;7.28;;;;;;;6.61;77.99;100783.19;5073072;28;20500;-78
2022/04/25 02:08:43;;;;;;;11.60;6.50;;;;;;;6.62;77.28;100783.13;5054944;28;20117;-70
2022/04/25 02:11:21;;;;;;;15.50;7.75;;;;;;;6.62;78.93;100785.84;5062480;28;20104;-70
2022/04/25 02:13:51;;;;;;;12.50;7.22;;;;;;;6.59;77.70;100785.13;5082689;28;20055;-78
2022/04/25 02:16:22;;;;;;;11.70;8.00;;;;;;;6.59;77.32;100783.28;5055804;28;20033;-78
2022/04/25 02:18:48;;;;;;;11.55;7.30;;;;;;;6.58;77.99;100781.56;5060732;28;20559;-70
2022/04/25 02:21:13;;;;;;;12.65;6.90;;;;;;;6.58;77.83;100786.97;5073261;28;20503;-77
2022/04/25 02:23:39;;;;;;;13.80;8.10;;;;;;;6.57;77.72;100782.50;5073022;28;20036;-69
2022/04/25 02:26:05;;;;;;;13.63;7.60;;;;;;;6.52;77.62;100781.03;5071395;28;20119;-69
2022/04/25 02:28:35;;;;;;;16.55;8.55;;;;;;;6.50;78.27;100775.72;5062203;28;20047;-69
2022/04/25 02:31:01;;;;;;;11.40;6.90;;;;;;;6.49;77.63;100779.38;5065663;28;20028;-70
2022/04/25 02:33:27;;;;;;;14.38;6.90;;;;;;;6.51;77.46;100779.28;5057417;28;20074;-71
2022/04/25 02:35:53;;;;;;;14.23;7.55;;;;;;;6.48;78.00;100774.03;5068069;28;20036;-78
2022/04/25 02:38:18;;;;;;;12.52;7.72;;;;;;;6.44;78.75;100775.19;5068847;28;20046;-77
2022/04/25 02:40:44;;;;;;;18.95;8.05;;;;;;;6.42;78.75;100769.00;5064383;28;20102;-70
2022/04/25 02:43:09;;;;;;;16.00;8.10;;;;;;;6.43;78.78;100785.09;5067554;28;20036;-72
2022/04/25 02:45:35;;;;;;;16.00;8.10;;;;;;;6.35;78.43;100777.44;5065609;28;20036;-70
2022/04/25 02:48:01;;;;;;;13.18;7.15;;;;;;;6.33;78.52;100776.66;5069174;28;20032;-69
2022/04/25 02:50:26;;;;;;;12.30;7.18;;;;;;;6.34;77.39;100781.13;5069096;28;20021;-78
2022/04/25 02:52:53;;;;;;;20.38;8.27;;;;;;;6.36;77.58;100772.91;5066937;28;20033;-70
2022/04/25 02:55:22;;;;;;;14.85;8.20;;;;;;;6.36;77.66;100778.31;5071965;28;20560;-76
2022/04/25 02:57:47;;;;;;;13.85;8.13;;;;;;;6.33;79.02;100783.88;5071678;28;20514;-70
2022/04/25 03:00:13;;;;;;;14.25;8.30;;;;;;;6.32;78.80;100784.84;5067450;28;20108;-70
2022/04/25 03:02:39;;;;;;;13.18;8.32;;;;;;;6.27;79.11;100776.13;5069063;28;20483;-79
2022/04/25 03:05:05;;;;;;;16.45;7.80;;;;;;;6.22;78.70;100778.22;5058730;28;20070;-78
2022/04/25 03:07:31;;;;;;;17.25;8.65;;;;;;;6.20;79.12;100774.72;5063918;28;20079;-70
2022/04/25 03:09:57;;;;;;;14.38;7.60;;;;;;;6.19;78.51;100783.78;5083666;28;20064;-77
2022/04/25 03:12:22;;;;;;;13.02;8.43;;;;;;;6.18;79.48;100780.22;5079338;28;20066;-69
2022/04/25 03:14:48;;;;;;;12.50;7.95;;;;;;;6.16;78.06;100776.72;5059380;28;20127;-76
2022/04/25 03:17:13;;;;;;;12.75;7.97;;;;;;;6.13;79.44;100771.50;5069399;28;20468;-70
2022/04/25 03:19:38;;;;;;;14.68;8.18;;;;;;;6.09;80.25;100776.19;5069410;28;20059;-77
2022/04/25 03:22:05;;;;;;;12.32;7.72;;;;;;;6.06;79.78;100768.28;5053456;28;20403;-79
2022/04/25 03:24:30;;;;;;;20.45;8.55;;;;;;;6.02;79.71;100768.53;5050003;28;20479;-70
2022/04/25 03:26:57;;;;;;;15.35;8.35;;;;;;;6.03;80.13;100771.13;5068136;28;20047;-72
2022/04/25 03:29:22;;;;;;;15.77;8.27;;;;;;;6.04;79.74;100780.97;5065621;28;20086;-78
2022/04/25 03:31:47;;;;;;;14.68;8.43;;;;;;;6.02;79.70;100774.78;5064103;28;20040;-78
2022/04/25 03:34:13;;;;;;;15.35;8.93;;;;;;;6.03;80.07;100789.16;5052225;28;20119;-70
2022/04/25 03:36:38;;;;;;;16.60;9.00;;;;;;;5.96;80.42;100775.09;5070717;28;20024;-69
2022/04/25 03:39:04;;;;;;;13.98;7.75;;;;;;;5.97;80.10;100782.28;5069201;28;20191;-79
2022/04/25 03:41:31;;;;;;;17.58;8.38;;;;;;;5.93;79.49;100787.94;5069380;28;20079;-79
2022/04/25 03:43:56;;;;;;;16.10;8.52;;;;;;;5.88;79.40;100778.22;5050549;28;20043;-70
2022/04/25 03:46:22;;;;;;;13.27;9.15;;;;;;;5.86;79.26;100790.03;5065316;28;20029;-70
2022/04/25 03:48:47;;;;;;;15.13;8.02;;;;;;;5.85;78.29;100782.91;5058529;28;20032;-69
2022/04/25 03:51:12;;;;;;;15.63;8.88;;;;;;;5.86;78.29;100795.44;5070818;28;20036;-70
2022/04/25 03:53:38;;;;;;;12.93;7.38;;;;;;;5.86;77.45;100793.59;5068637;28;20035;-77
2022/04/25 03:58:48;;;;;;;15.93;7.78;;;;;;;5.88;77.68;100796.25;5081314;28;20031;-72
2022/04/25 04:01:14;;;;;;;14.80;8.30;;;;;;;5.84;78.01;100797.34;5056967;28;20031;-70
2022/04/25 04:03:39;;;;;;;14.73;8.50;;;;;;;5.80;79.44;100793.06;5063800;28;20036;-70
2022/04/25 04:06:05;;;;;;;13.40;7.93;;;;;;;5.80;77.79;100795.78;5071032;28;20115;-71
2022/04/25 04:08:31;;;;;;;13.57;7.90;;;;;;;5.78;78.65;100797.66;5064540;28;20029;-71
2022/04/25 04:10:56;;;;;;;16.50;9.07;;;;;;;5.76;78.30;100804.97;5070412;28;20040;-71
2022/04/25 04:13:22;;;;;;;15.05;8.60;;;;;;;5.73;78.59;100802.44;5070329;28;20025;-71
2022/04/25 04:15:47;;;;;;;17.25;9.73;;;;;;;5.68;79.91;100804.50;5057393;28;20036;-77
2022/04/25 04:18:13;;;;;;;13.95;8.57;;;;;;;5.63;79.31;100805.63;5058505;28;20067;-77
2022/04/25 04:20:38;;;;;;;17.17;9.63;;;;;;;5.60;80.16;100807.63;5066599;28;20050;-78
2022/04/25 04:23:04;;;;;;;20.67;10.35;;;;;;;5.61;81.58;100812.06;5069042;28;20474;-71
2022/04/25 04:25:32;;;;;;;19.58;10.43;;;;;;;5.56;81.96;100812.31;5070453;28;20093;-71
2022/04/25 04:27:57;;;;;;;20.90;10.30;;;;;;;5.52;80.44;100801.75;5056120;28;20036;-78
2022/04/25 04:30:22;;;;;;;20.13;9.88;;;;;;;5.54;81.81;100814.19;5067568;28;20550;-70
2022/04/25 04:32:48;;;;;;;16.75;9.13;;;;;;;5.55;81.40;100810.56;5057133;28;20041;-70
2022/04/25 04:35:16;;;;;;;21.02;11.20;;;;;;;5.58;81.25;100812.22;5062365;28;20036;-78
2022/04/25 04:37:41;;;;;;;17.30;10.20;;;;;;;5.57;82.49;100815.88;5069240;28;20024;-78
2022/04/25 04:42:54;;;;;;;16.15;9.70;;;;;;;5.55;82.52;100823.19;5066975;28;20032;-71
2022/04/25 04:45:20;;;;;;;17.95;10.32;;;;;;;5.55;82.41;100818.66;5065480;28;20039;-76
2022/04/25 04:47:45;;;;;;;16.40;10.07;;;;;;;5.59;81.19;100832.84;5061798;28;20033;-70
2022/04/25 04:50:14;;;;;;;27.20;9.73;;;;;;;5.59;82.69;100824.75;5066670;28;20032;-78
2022/04/25 04:53:00;;;;;;;21.92;10.57;;;;;;;5.58;81.43;100826.56;5065811;28;20032;-74
2022/04/25 04:55:26;;;;;;;19.90;10.65;;;;;;;5.52;84.40;100836.84;5069707;28;20105;-78
2022/04/25 04:57:52;;;;;;;22.40;11.05;;;;;;;5.45;84.48;100833.56;5066004;28;20032;-75
2022/04/25 05:00:18;;;;;;;18.38;11.10;;;;;;;5.42;84.85;100844.53;5058543;28;20116;-79
2022/04/25 05:02:44;;;;;;;21.88;11.05;;;;;;;5.46;83.74;100843.41;5061877;28;20046;-71
2022/04/25 05:05:12;;;;;;;18.85;10.82;;;;;;;5.51;84.15;100835.09;5067248;28;20412;-76
2022/04/25 05:07:37;;;;;;;19.90;10.85;;;;;;;5.58;84.13;100845.47;5068658;28;20035;-76
2022/04/25 05:10:07;;;;;;;16.02;10.23;;;;;;;5.63;83.87;100850.63;5069422;28;20044;-70
2022/04/25 05:12:52;;;;;;;18.65;11.75;;;;;;;5.69;84.46;100857.53;5054627;28;20039;-77
2022/04/25 05:15:18;;;;;;;27.45;10.32;;;;;;;5.74;85.03;100868.97;5066832;28;20048;-78
2022/04/25 05:17:48;;;;;;;19.85;10.57;;;;;;;5.75;84.74;100860.78;5067119;28;20523;-69
2022/04/25 05:20:14;;;;;;;22.25;12.48;;;;;;;5.75;85.56;100857.22;5058812;28;20037;-77
2022/04/25 05:22:44;;;;;;;18.27;10.95;;;;;;;5.79;85.46;100859.69;5066773;28;20361;-73
2022/04/25 05:25:10;;;;;;;22.38;11.27;;;;;;;5.81;85.76;100865.00;5067438;28;20036;-73
2022/04/25 05:27:35;;;;;;;20.58;11.75;;;;;;;5.82;86.08;100867.59;5066717;28;20032;-76
2022/04/25 05:30:01;;;;;;;19.05;11.48;;;;;;;5.86;85.30;100863.78;5059590;28;20048;-69
2022/04/25 05:32:26;;;;;;;24.73;11.85;;;;;;;5.88;85.45;100864.59;5048060;28;20086;-70
2022/04/25 05:34:51;;;;;;;21.15;11.20;;;;;;;5.89;86.22;100868.19;5066394;28;20032;-78
2022/04/25 05:37:17;;;;;;;21.30;11.27;;;;;;;5.90;86.26;100869.91;5069535;28;20066;-70
2022/04/25 05:39:42;;;;;;;22.50;11.85;;;;;;;5.95;86.06;100870.56;5069208;28;20043;-70
2022/04/25 05:42:08;;;;;;;25.10;11.35;;;;;;;6.02;85.86;100879.25;5067905;28;20033;-70
2022/04/25 05:44:33;;;;;;;23.13;12.30;;;;;;;6.12;86.05;100878.66;5065175;28;20052;-77
2022/04/25 05:46:59;;;;;;;24.13;11.85;;;;;;;6.22;85.07;100884.44;5063871;28;20371;-72
2022/04/25 05:52:08;;;;;;;17.83;11.23;;;;;;;6.47;85.00;100896.59;5062747;28;20036;-69
2022/04/25 05:54:34;;;;;;;23.58;12.98;;;;;;;6.49;85.10;100892.00;5068469;28;20028;-77
2022/04/25 05:57:00;;;;;;;21.75;11.85;;;;;;;6.56;84.45;100904.22;5062076;28;20561;-71
2022/04/25 05:59:27;;;;;;;23.92;11.77;;;;;;;6.56;85.00;100894.28;5063607;28;20117;-76
2022/04/25 06:01:53;;;;;;;21.48;12.27;;;;;;;6.59;85.27;100894.13;5057879;28;20039;-70
2022/04/25 06:04:20;;;;;;;24.95;13.40;;;;;;;6.64;85.11;100899.28;5065346;28;20040;-70
2022/04/25 06:06:45;;;;;;;22.30;12.05;;;;;;;6.69;84.96;100894.47;5072717;28;20043;-77
2022/04/25 06:09:10;;;;;;;20.67;12.43;;;;;;;6.69;84.98;100899.88;5048557;28;20040;-77
2022/04/25 06:11:36;;;;;;;23.35;12.50;;;;;;;6.73;85.07;100900.59;5067205;28;20035;-70
2022/04/25 06:14:02;;;;;;;19.50;12.70;;;;;;;6.73;84.61;100909.56;5068157;28;20083;-77
2022/04/25 06:16:27;;;;;;;16.55;11.43;;;;;;;6.77;84.70;100903.03;5067209;28;20075;-78
2022/04/25 06:18:53;;;;;;;18.73;11.73;;;;;;;6.90;83.41;100916.72;5068199;28;20060;-76
2022/04/25 06:21:18;;;;;;;20.45;11.60;;;;;;;6.95;84.01;100908.34;5071875;28;20044;-77
2022/04/25 06:23:44;;;;;;;22.00;12.88;;;;;;;6.94;84.52;100904.78;5072638;28;20036;-76
2022/04/25 06:26:09;;;;;;;22.80;13.02;;;;;;;7.06;84.26;100914.06;5063995;28;20040;-72
2022/04/25 06:28:34;;;;;;;27.50;12.65;;;;;;;7.18;84.09;100909.75;5051497;28;20028;-70
2022/04/25 06:31:00;;;;;;;25.02;13.13;;;;;;;7.24;83.26;100902.19;5066014;28;20036;-76
2022/04/25 06:33:26;;;;;;;20.58;12.73;;;;;;;7.34;83.60;100900.66;5052335;28;20483;-70
2022/04/25 06:35:51;;;;;;;23.23;13.07;;;;;;;7.46;82.90;100906.31;5067306;28;20040;-75
2022/04/25 06:38:18;;;;;;;22.23;13.50;;;;;;;7.62;82.55;100901.75;5066630;28;20044;-76
2022/04/25 06:40:44;;;;;;;22.10;11.35;;;;;;;7.79;81.48;100908.91;5072314;28;20032;-73
2022/04/25 06:43:10;;;;;;;24.70;12.02;;;;;;;7.92;81.16;100913.44;5070389;28;20028;-73
2022/04/25 06:45:36;;;;;;;26.55;14.52;;;;;;;8.04;82.93;100919.13;5064510;28;20576;-76
2022/04/25 06:48:01;;;;;;;24.08;13.25;;;;;;;8.11;81.47;100923.16;5067753;28;20166;-76
2022/04/25 06:50:27;;;;;;;19.92;12.43;;;;;;;8.12;82.03;100927.66;5057492;28;20021;-77
2022/04/25 06:52:53;;;;;;;22.42;13.38;;;;;;;8.11;80.91;100928.59;5070741;28;20044;-77
2022/04/25 06:55:19;;;;;;;25.88;13.02;;;;;;;8.14;81.50;100928.41;5069054;28;20043;-70
2022/04/25 06:57:44;;;;;;;20.80;12.98;;;;;;;8.10;81.33;100926.84;5068906;28;20375;-77
2022/04/25 07:00:11;;;;;;;26.00;14.35;;;;;;;8.09;81.69;100931.41;5056050;28;20037;-77
2022/04/25 07:02:37;;;;;;;21.48;13.65;;;;;;;8.10;81.78;100930.44;5070040;28;20037;-77
2022/04/25 07:05:04;;;;;;;26.95;14.80;;;;;;;8.17;82.78;100928.25;5059176;28;20112;-69
2022/04/25 07:07:30;;;;;;;25.58;14.25;;;;;;;8.22;82.17;100936.09;5069859;28;20032;-70
2022/04/25 07:09:56;;;;;;;25.13;15.35;;;;;;;8.27;82.05;100936.69;5064027;28;20397;-69
2022/04/25 07:12:21;;;;;;;22.92;13.82;;;;;;;8.26;81.58;100943.06;5068199;28;20471;-69
2022/04/25 07:14:46;;;;;;;27.73;16.33;;;;;;;8.28;81.62;100935.69;5065110;28;20128;-69
2022/04/25 07:17:12;;;;;;;27.92;15.02;;;;;;;8.35;82.24;100937.94;5063820;28;20123;-71
2022/04/25 07:19:39;;;;;;;26.33;14.82;;;;;;;8.28;81.19;100919.44;5061902;28;20024;-77
2022/04/25 07:30:18;;;;;;;25.42;15.48;;;;;;;8.40;81.81;100944.00;5062510;28;20553;-77
2022/04/25 07:32:44;;;;;;;26.13;14.30;;;;;;;8.39;81.57;100949.50;5065295;28;20126;-68
2022/04/25 07:35:09;;;;;;;23.08;14.70;;;;;;;8.36;81.41;100945.16;5069263;28;20382;-76
2022/04/25 07:37:35;;;;;;;27.90;14.93;;;;;;;8.39;81.44;100954.91;5069924;28;20037;-69
2022/04/25 07:40:02;;;;;;;24.67;15.48;;;;;;;8.38;81.61;100954.03;5067902;28;20308;-68
2022/04/25 07:42:31;;;;;;;24.02;14.57;;;;;;;8.39;81.11;100952.19;5067097;28;20040;-70
2022/04/25 07:44:57;;;;;;;28.08;15.45;;;;;;;8.36;81.69;100952.38;5068677;28;20035;-78
2022/04/25 07:47:22;;;;;;;29.75;16.20;;;;;;;8.40;82.20;100954.84;5066315;28;20029;-69
2022/04/25 07:49:48;;;;;;;25.10;15.68;;;;;;;8.38;81.53;100953.16;5058597;28;20045;-77
2022/04/25 07:52:14;;;;;;;27.98;15.23;;;;;;;8.30;81.28;100952.72;5069603;28;20037;-78
2022/04/25 07:54:39;;;;;;;29.80;16.25;;;;;;;8.27;81.96;100961.06;5051279;28;20040;-70
2022/04/25 07:57:05;;;;;;;26.73;16.98;;;;;;;8.22;82.17;100968.63;5066867;28;20036;-76
2022/04/25 07:59:31;;;;;;;28.88;16.42;;;;;;;8.16;82.76;100973.44;5066814;28;20434;-71
2022/04/25 08:01:57;;;;;;;29.00;16.88;;;;;;;8.10;82.87;100972.91;5068496;28;20097;-70
2022/04/25 08:04:22;;;;;;;27.20;16.52;;;;;;;8.06;83.89;100971.34;5068892;28;20511;-72
2022/04/25 08:06:47;;;;;;;29.13;17.55;;;;;;;8.05;84.46;100973.19;5070560;28;20086;-71
2022/04/25 08:09:15;;;;;;;30.83;16.58;;;;;;;8.05;84.34;100977.75;5065371;28;20040;-69
2022/04/25 08:11:40;;;;;;;32.33;16.58;;;;;;;8.02;84.87;100978.81;5061707;28;20032;-69
2022/04/25 08:19:22;;;;;;;33.28;18.05;;;;;;;7.86;85.35;100991.50;5065829;28;20028;-70
2022/04/25 08:21:48;;;;;;;31.73;16.85;;;;;;;7.82;85.32;100989.94;5070205;28;20074;-69
2022/04/25 08:24:14;;;;;;;32.90;17.50;;;;;;;7.76;86.30;100990.31;5070002;28;20044;-71
2022/04/25 08:26:40;;;;;;;36.50;18.55;;;;;;;7.76;86.53;100993.88;5057077;28;20013;-69
2022/04/25 08:29:06;;;;;;;29.30;18.20;;;;;;;7.78;86.22;100996.50;5068057;28;20035;-70
2022/04/25 08:31:33;;;;;;;29.17;17.00;;;;;;;7.78;86.57;100999.19;5059914;28;20036;-74
2022/04/25 08:33:59;;;;;;;31.40;16.70;;;;;;;7.73;86.40;100996.75;5058265;28;20050;-71
2022/04/25 08:36:24;;;;;;;30.77;17.10;;;;;;;7.75;86.12;100999.41;5064580;28;20127;-68
2022/04/25 08:38:51;;;;;;;32.40;18.35;;;;;;;7.74;86.83;101014.78;5065921;28;20036;-67
2022/04/25 08:41:24;;;;;;;30.85;17.10;;;;;;;7.75;86.82;101010.25;5052749;28;20064;-69
2022/04/25 08:43:51;;;;;;;31.23;17.13;;;;;;;7.75;87.23;101013.81;5052855;28;20409;-68
2022/04/25 08:46:17;;;;;;;33.85;18.05;;;;;;;7.78;87.71;101015.44;5056488;28;20094;-70
2022/04/25 08:48:44;;;;;;;34.40;18.90;;;;;;;7.85;86.63;101022.28;5058874;28;20037;-71
2022/04/25 08:51:11;;;;;;;34.38;19.58;;;;;;;7.93;86.24;101015.44;5050543;28;20041;-71
2022/04/25 08:53:39;;;;;;;35.45;18.15;;;;;;;7.96;87.08;101018.94;5053455;28;20434;-73
2022/04/25 08:56:07;;;;;;;33.08;19.40;;;;;;;7.98;87.43;101019.72;5056201;28;20941;-72
2022/04/25 08:58:35;;;;;;;30.58;18.23;;;;;;;7.95;86.93;101023.47;5052120;28;20162;-71
2022/04/25 09:01:02;;;;;;;27.80;18.15;;;;;;;8.00;86.76;101024.06;5057279;28;20567;-71
2022/04/25 09:03:27;;;;;;;28.77;17.45;;;;;;;8.05;85.39;101026.50;5040375;28;20036;-72
2022/04/25 09:05:53;;;;;;;32.28;18.48;;;;;;;8.07;86.30;101030.91;5060919;28;20261;-68
2022/04/25 09:08:19;;;;;;;34.53;19.60;;;;;;;8.10;86.44;101027.97;5073269;28;20100;-70
2022/04/25 09:10:44;;;;;;;29.38;17.50;;;;;;;8.13;85.91;101040.50;5054344;28;20081;-70
2022/04/25 09:13:11;;;;;;;30.48;18.45;;;;;;;8.17;85.46;101044.78;5057828;28;20036;-71
2022/04/25 09:15:36;;;;;;;35.95;19.23;;;;;;;8.18;86.33;101049.22;5052176;28;20099;-69
2022/04/25 09:18:02;;;;;;;35.03;19.50;;;;;;;8.18;86.76;101046.50;5052878;28;20070;-70
2022/04/25 09:20:28;;;;;;;32.53;18.63;;;;;;;8.23;85.96;101051.66;5057183;28;20040;-70
2022/04/25 09:22:55;;;;;;;32.08;18.42;;;;;;;8.27;85.92;101045.09;5061177;28;20032;-71
2022/04/25 09:25:20;;;;;;;41.28;18.65;;;;;;;8.29;85.21;101054.84;5050404;28;20400;-71
2022/04/25 09:28:05;;;;;;;33.42;18.23;;;;;;;8.33;84.97;101051.00;5057177;28;20124;-73
2022/04/25 09:30:30;;;;;;;;;;;;;;;8.37;83.41;101049.91;5058789;28;20488;-72
2022/04/25 09:32:56;;;;;;;34.30;17.73;;;;;;;8.34;86.15;101054.59;5058574;28;19916;-69
2022/04/25 09:35:32;;;;;;;35.53;18.92;;;;;;;8.35;86.05;101059.06;5043959;28;20488;-72
2022/04/25 09:38:00;;;;;;;29.67;18.23;;;;;;;8.38;85.86;101056.19;5069261;28;20029;-71
2022/04/25 09:40:29;;;;;;;33.63;18.38;;;;;;;8.38;86.06;101056.19;5057635;28;20029;-71
2022/04/25 09:43:11;;;;;;;28.92;17.13;;;;;;;8.40;86.25;101054.28;5066649;28;20459;-73
2022/04/25 09:45:41;;;;;;;30.73;17.13;;;;;;;8.41;86.76;101056.88;5074626;28;20029;-74
2022/04/25 09:48:11;;;;;;;28.63;16.33;;;;;;;8.50;85.82;101060.88;5068078;28;20036;-74
2022/04/25 09:50:38;;;;;;;22.58;14.98;;;;;;;8.56;85.41;101067.78;5064489;28;20282;-69
2022/04/25 09:53:05;;;;;;;24.33;14.35;;;;;;;8.53;85.20;101065.22;5071644;28;20125;-70
2022/04/25 09:55:34;;;;;;;24.90;14.77;;;;;;;8.50;85.76;101063.59;5063400;28;20048;-69
2022/04/25 09:58:13;;;;;;;24.35;14.57;;;;;;;8.56;84.85;101062.34;5068089;28;20033;-73
2022/04/25 10:00:38;;;;;;;21.77;13.23;;;;;;;8.59;85.03;101076.59;5068306;28;20032;-70
2022/04/25 10:03:05;;;;;;;19.95;12.93;;;;;;;8.60;83.45;101066.63;5063863;28;20094;-72
2022/04/25 10:05:47;;;;;;;22.85;13.57;;;;;;;8.65;84.95;101081.63;5052612;28;20020;-70
2022/04/25 10:08:14;;;;;;;22.52;12.95;;;;;;;8.67;85.22;101076.13;5064559;28;20039;-73
2022/04/25 10:10:50;;;;;;;21.25;13.00;;;;;;;8.72;84.22;101078.53;5048156;28;20033;-70
2022/04/25 10:13:17;;;;;;;22.08;13.32;;;;;;;8.78;84.12;101080.91;5062413;28;20032;-72
2022/04/25 10:15:45;;;;;;;21.80;14.50;;;;;;;8.87;84.61;101085.78;5070473;28;20051;-71
2022/04/25 10:18:11;;;;;;;23.23;14.38;;;;;;;8.87;84.65;101086.63;5063594;28;20028;-72
2022/04/25 10:20:38;;;;;;;23.75;14.65;;;;;;;8.88;85.05;101087.50;5059990;28;20036;-70
2022/04/25 10:23:05;;;;;;;20.13;12.63;;;;;;;8.86;84.96;101084.00;5072693;28;20377;-71
2022/04/25 10:25:31;;;;;;;18.40;12.55;;;;;;;8.87;84.74;101092.06;5060277;28;20430;-73
2022/04/25 10:28:01;;;;;;;21.92;13.25;;;;;;;8.90;83.86;101094.56;5067606;28;20036;-73
2022/04/25 10:30:32;;;;;;;20.33;12.55;;;;;;;8.94;83.96;101097.97;5069671;28;20060;-71
2022/04/25 10:33:20;;;;;;;21.15;12.43;;;;;;;9.07;82.78;101095.38;5069420;28;20032;-74
2022/04/25 10:35:49;;;;;;;22.13;13.57;;;;;;;9.13;83.27;101106.72;5066524;28;20046;-73
2022/04/25 10:44:29;;;;;;;21.15;12.93;;;;;;;9.12;83.23;101104.97;5067213;28;20040;-68
2022/04/25 10:47:05;;;;;;;22.88;12.82;;;;;;;9.11;83.96;101113.22;5063049;28;20049;-73
2022/04/25 10:49:34;;;;;;;20.60;12.32;;;;;;;9.12;83.53;101109.53;5064210;28;20099;-73
2022/04/25 10:52:01;;;;;;;19.27;11.73;;;;;;;9.18;82.13;101109.13;5069606;28;20043;-73
2022/04/25 10:54:30;;;;;;;18.08;12.35;;;;;;;9.29;82.90;101114.78;5069378;28;20024;-70
2022/04/25 10:57:07;;;;;;;19.95;11.98;;;;;;;9.29;81.61;101122.94;5068917;28;20032;-72
2022/04/25 10:59:33;;;;;;;18.50;11.48;;;;;;;9.18;82.38;101122.72;5065650;28;20044;-73
2022/04/25 11:01:58;;;;;;;20.38;13.40;;;;;;;9.15;81.58;101122.94;5066654;28;20438;-74
2022/04/25 11:04:24;;;;;;;20.42;13.32;;;;;;;9.18;83.01;101123.59;5061928;28;20037;-73
2022/04/25 11:07:22;;;;;;;20.70;12.57;;;;;;;9.23;81.57;101125.13;5055901;28;20487;-72
2022/04/25 11:09:48;;;;;;;20.52;11.93;;;;;;;9.19;82.14;101119.06;5083520;28;20037;-74
2022/04/25 11:12:14;;;;;;;18.08;12.23;;;;;;;9.20;82.66;101126.22;5064594;28;20047;-74
2022/04/25 11:14:57;;;;;;;20.38;12.98;;;;;;;9.17;81.43;101126.41;5064020;28;20396;-73
2022/04/25 11:17:23;;;;;;;20.13;12.40;;;;;;;9.06;80.49;101128.91;5064238;28;20032;-73
2022/04/25 11:19:53;;;;;;;23.10;13.13;;;;;;;8.91;80.93;101131.59;5066665;28;20033;-71
2022/04/25 11:22:41;;;;;;;21.38;13.32;;;;;;;8.82;82.75;101128.59;5070908;28;20037;-71
2022/04/25 11:25:27;;;;;;;21.75;12.93;;;;;;;8.88;82.24;101141.75;5069712;28;20040;-72
2022/04/25 11:28:10;;;;;;;22.63;12.90;;;;;;;8.82;82.81;101140.31;5043529;28;20040;-69
2022/04/25 11:30:36;;;;;;;;;;;;;;;8.90;81.20;101151.53;5059167;28;20511;-73
2022/04/25 11:33:03;;;;;;;21.92;13.25;;;;;;;8.90;83.77;101145.25;5057585;28;19912;-71
2022/04/25 11:35:29;;;;;;;23.05;14.27;;;;;;;8.91;83.08;101144.31;5065638;28;20090;-71
2022/04/25 11:37:58;;;;;;;24.95;13.85;;;;;;;8.93;82.75;101147.78;5070647;28;20454;-73
2022/04/25 11:40:26;;;;;;;24.48;13.88;;;;;;;8.93;83.59;101154.09;5065686;28;20057;-74
2022/04/25 11:42:52;;;;;;;26.55;15.18;;;;;;;8.90;83.21;101154.25;5055589;28;20539;-72
2022/04/25 11:45:19;;;;;;;24.92;15.55;;;;;;;8.90;83.84;101148.81;5068369;28;20044;-69
2022/04/25 11:47:45;;;;;;;25.65;15.45;;;;;;;8.90;83.44;101159.69;5066202;28;20048;-69
2022/04/25 11:50:11;;;;;;;25.65;15.10;;;;;;;8.89;83.61;101157.94;5068355;28;20035;-72
2022/04/25 11:52:47;;;;;;;26.35;14.57;;;;;;;8.95;83.40;101156.69;5068918;28;20032;-69